Hovedside
METAR-TAF:

METAR-TAF

Lufthavner :

Sankt Michel lufthavn

Sankt Michel, Finland

breddegrad: 61-44N, lengdegrad: 027-18E, høyde over havet: 138 m

Gjeldene værobservasjon

Denne rapporten ble laget for 36 minutter siden, klokken 10:20 UTC
Vind 4 kt fra Sør, skiftende mellom Sørøst og Vest-sørvest
Temperatur 12°C
Luftfuktighet 94%
Trykk 1009 hPa
Sikt: 9000 m
Overskyet i en høyde av 1400 ft
lette regnbyger

METAR: EFMI 211020Z AUTO 19004KT 130V250 9000 -SHRA OVC014 12/11 Q1009

Tid: 13:56 (10:56 UTC)


TAF: fraværende

Værobservasjoner og værvarsel for over 4000 flyplasser (METAR- og TAF-rapporter).

Tilgjengelige stasjoner er representert av de røde og gule prikkene på kartet.

Hold musepekeren over prikken for å se navnet på stasjonen.

Klikk så for å se værobservasjoner og -varsler.

For å forandre kartet kan du klikke på den grønne knappen med svart kryss for å zoome inn, på den grønne knappen med strek for å zoome ut, eller på de grønne pilene for å se tilstøtende kart.


METAR-TAF: